createdAt,value
2017-07-01T00:00:38.466Z,16.93
2017-07-01T00:05:33.865Z,16.86
2017-07-01T00:10:29.797Z,16.94
2017-07-01T00:15:25.963Z,16.93
2017-07-01T00:20:22.845Z,16.86
2017-07-01T00:25:18.105Z,16.75
2017-07-01T00:30:13.569Z,16.69
2017-07-01T00:35:09.339Z,16.72
2017-07-01T00:40:05.124Z,16.66
2017-07-01T00:45:00.835Z,16.76
2017-07-01T00:49:56.805Z,16.64
2017-07-01T00:54:52.662Z,16.57
2017-07-01T00:59:48.547Z,16.71
2017-07-01T01:04:44.463Z,16.61
2017-07-01T01:09:40.385Z,16.64
2017-07-01T01:14:36.700Z,16.54
2017-07-01T01:19:32.427Z,16.60
2017-07-01T01:24:27.922Z,16.54
2017-07-01T01:29:24.297Z,16.58
2017-07-01T01:34:20.002Z,16.46
2017-07-01T01:39:15.875Z,16.42
2017-07-01T01:44:11.741Z,16.31
2017-07-01T01:49:08.425Z,16.32
2017-07-01T01:54:04.361Z,16.16
2017-07-01T01:59:00.150Z,16.23
2017-07-01T02:03:56.773Z,16.31
2017-07-01T02:08:53.229Z,16.20
2017-07-01T02:13:48.781Z,16.15
2017-07-01T02:18:44.445Z,16.05
2017-07-01T02:23:40.347Z,16.09
2017-07-01T02:28:36.398Z,16.05
2017-07-01T02:33:31.896Z,16.09
2017-07-01T02:38:28.699Z,16.04
2017-07-01T02:43:24.534Z,16.01
2017-07-01T02:48:20.306Z,15.94
2017-07-01T02:53:16.147Z,15.94
2017-07-01T02:58:11.778Z,15.90
2017-07-01T03:03:07.586Z,15.94
2017-07-01T03:08:04.444Z,15.91
2017-07-01T03:12:59.747Z,15.98
2017-07-01T03:17:55.524Z,15.91
2017-07-01T03:22:51.260Z,15.83
2017-07-01T03:27:48.317Z,15.94
2017-07-01T03:32:43.727Z,15.86
2017-07-01T03:37:40.538Z,15.86
2017-07-01T03:42:37.101Z,15.91
2017-07-01T03:47:33.645Z,15.94
2017-07-01T03:52:29.338Z,15.92
2017-07-01T03:57:26.186Z,15.94
2017-07-01T04:02:21.883Z,15.90
2017-07-01T04:07:18.239Z,15.98
2017-07-01T04:12:14.212Z,15.94
2017-07-01T04:17:10.897Z,15.92
2017-07-01T04:22:06.667Z,16.00
2017-07-01T04:27:02.816Z,15.95
2017-07-01T04:31:58.804Z,16.01
2017-07-01T04:36:54.601Z,15.91
2017-07-01T04:41:50.639Z,15.95
2017-07-01T04:46:48.095Z,15.92
2017-07-01T04:51:43.622Z,15.91
2017-07-01T04:56:39.639Z,15.94
2017-07-01T05:01:35.899Z,15.91
2017-07-01T05:06:31.656Z,16.04
2017-07-01T05:11:27.360Z,15.92
2017-07-01T05:16:23.082Z,16.01
2017-07-01T05:21:18.981Z,16.09
2017-07-01T05:26:14.746Z,16.04
2017-07-01T05:31:11.500Z,16.05
2017-07-01T05:36:08.173Z,16.09
2017-07-01T05:41:03.408Z,16.05
2017-07-01T05:45:59.625Z,16.00
2017-07-01T05:50:56.808Z,16.01
2017-07-01T05:55:53.361Z,15.98
2017-07-01T06:00:49.839Z,15.88
2017-07-01T06:05:46.444Z,15.92
2017-07-01T06:10:42.004Z,15.90
2017-07-01T06:15:37.868Z,15.95
2017-07-01T06:20:34.694Z,15.82
2017-07-01T06:25:30.488Z,15.97
2017-07-01T06:30:27.046Z,16.01
2017-07-01T06:35:23.045Z,16.13
2017-07-01T06:40:18.969Z,16.16
2017-07-01T06:45:14.794Z,16.08
2017-07-01T06:50:10.687Z,16.23
2017-07-01T06:55:06.448Z,16.12
2017-07-01T07:00:02.577Z,16.20
2017-07-01T07:04:59.578Z,16.17
2017-07-01T07:09:55.090Z,16.24
2017-07-01T07:14:51.315Z,16.33
2017-07-01T07:19:47.400Z,16.41
2017-07-01T07:24:44.795Z,16.32
2017-07-01T07:29:40.755Z,16.36
2017-07-01T07:34:36.582Z,16.38
2017-07-01T07:39:33.567Z,16.56
2017-07-01T07:44:29.254Z,16.38
2017-07-01T07:49:24.995Z,16.54
2017-07-01T07:54:21.012Z,16.66
2017-07-01T07:59:18.306Z,16.57
2017-07-01T08:04:14.502Z,16.75
2017-07-01T08:09:10.653Z,16.84
2017-07-01T08:14:06.433Z,16.83
2017-07-01T08:19:02.386Z,17.01
2017-07-01T08:23:59.561Z,17.30
2017-07-01T08:28:55.463Z,17.39
2017-07-01T08:33:51.279Z,17.24
2017-07-01T08:38:46.830Z,17.12
2017-07-01T08:43:42.775Z,17.33
2017-07-01T08:48:39.327Z,17.31
2017-07-01T08:53:34.614Z,17.29
2017-07-01T08:58:31.008Z,17.33
2017-07-01T09:03:26.686Z,17.24
2017-07-01T09:08:22.330Z,16.91
2017-07-01T09:13:17.539Z,16.84
2017-07-01T09:18:13.528Z,16.81
2017-07-01T09:23:09.518Z,16.86
2017-07-01T09:28:05.241Z,17.05
2017-07-01T09:33:01.311Z,17.08
2017-07-01T09:37:57.082Z,17.05
2017-07-01T09:42:54.058Z,17.15
2017-07-01T09:47:49.553Z,17.02
2017-07-01T09:52:45.359Z,16.94
2017-07-01T09:57:41.344Z,17.08
2017-07-01T10:02:37.481Z,17.22
2017-07-01T10:07:33.673Z,17.60
2017-07-01T10:12:31.038Z,17.78
2017-07-01T10:17:27.091Z,18.08
2017-07-01T10:22:23.113Z,18.19
2017-07-01T10:27:18.978Z,18.16
2017-07-01T10:32:15.565Z,18.11
2017-07-01T10:37:10.832Z,17.98
2017-07-01T10:42:06.713Z,17.90
2017-07-01T10:47:03.406Z,17.76
2017-07-01T10:51:58.588Z,17.67
2017-07-01T10:56:54.463Z,17.45
2017-07-01T11:01:50.139Z,17.44
2017-07-01T11:06:45.876Z,17.38
2017-07-01T11:11:42.777Z,17.46
2017-07-01T11:16:39.762Z,17.59
2017-07-01T11:21:35.490Z,17.65
2017-07-01T11:26:33.686Z,17.82
2017-07-01T11:31:30.247Z,18.20
2017-07-01T11:36:26.590Z,18.29
2017-07-01T11:41:22.508Z,18.31
2017-07-01T11:46:18.226Z,18.40
2017-07-01T11:51:13.885Z,18.22
2017-07-01T11:56:09.741Z,18.33
2017-07-01T12:01:05.600Z,18.33
2017-07-01T12:06:01.711Z,18.55
2017-07-01T12:10:58.149Z,18.68
2017-07-01T12:15:53.890Z,18.93
2017-07-01T12:20:50.047Z,18.93
2017-07-01T12:25:45.950Z,18.80
2017-07-01T12:30:41.723Z,18.68
2017-07-01T12:35:37.263Z,18.34
2017-07-01T12:40:34.093Z,18.41
2017-07-01T12:45:29.584Z,18.34
2017-07-01T12:50:25.373Z,18.23
2017-07-01T12:55:21.190Z,18.25
2017-07-01T13:00:17.223Z,18.07
2017-07-01T13:05:13.091Z,17.87
2017-07-01T13:10:08.914Z,17.97
2017-07-01T13:15:04.991Z,18.10
2017-07-01T13:20:01.409Z,18.25
2017-07-01T13:24:57.243Z,18.19
2017-07-01T13:29:52.751Z,18.13
2017-07-01T13:34:48.493Z,17.94
2017-07-01T13:39:44.258Z,18.01
2017-07-01T13:44:40.076Z,18.01
2017-07-01T13:49:36.018Z,17.97
2017-07-01T13:54:31.679Z,17.87
2017-07-01T13:59:27.772Z,17.89
2017-07-01T14:04:23.514Z,17.65
2017-07-01T14:09:19.616Z,17.68
2017-07-01T14:14:15.456Z,17.64
2017-07-01T14:19:10.780Z,17.68
2017-07-01T14:24:06.831Z,17.56
2017-07-01T14:29:03.319Z,17.68
2017-07-01T14:34:00.166Z,17.56
2017-07-01T14:38:56.390Z,17.71
2017-07-01T14:43:52.389Z,17.79
2017-07-01T14:48:48.325Z,17.95
2017-07-01T14:53:44.660Z,18.11
2017-07-01T14:58:40.546Z,18.04
2017-07-01T15:03:36.181Z,17.94
2017-07-01T15:08:32.440Z,17.79
2017-07-01T15:13:28.330Z,17.78
2017-07-01T15:18:24.120Z,17.68
2017-07-01T15:23:19.935Z,17.71
2017-07-01T15:28:15.963Z,17.85
2017-07-01T15:33:11.742Z,17.89
2017-07-01T15:38:07.554Z,17.98
2017-07-01T15:43:04.453Z,17.97
2017-07-01T15:48:00.060Z,18.18
2017-07-01T15:52:56.633Z,18.38
2017-07-01T15:57:52.838Z,18.47
2017-07-01T16:02:48.875Z,18.74
2017-07-01T16:07:45.775Z,18.75
2017-07-01T16:12:42.391Z,18.83
2017-07-01T16:17:37.917Z,18.90
2017-07-01T16:22:34.040Z,18.95
2017-07-01T16:27:30.124Z,19.02
2017-07-01T16:32:25.982Z,19.11
2017-07-01T16:37:21.690Z,19.04
2017-07-01T16:42:17.309Z,19.14
2017-07-01T16:47:14.222Z,19.16
2017-07-01T16:52:09.956Z,19.36
2017-07-01T16:57:05.832Z,19.54
2017-07-01T17:02:03.049Z,19.51
2017-07-01T17:06:59.275Z,19.47
2017-07-01T17:11:55.619Z,19.36
2017-07-01T17:16:51.339Z,19.48
2017-07-01T17:21:47.121Z,19.44
2017-07-01T17:26:42.896Z,19.33
2017-07-01T17:31:39.689Z,19.34
2017-07-01T17:36:36.114Z,19.41
2017-07-01T17:41:32.524Z,19.51
2017-07-01T17:46:28.792Z,19.49
2017-07-01T17:51:24.491Z,19.49
2017-07-01T17:56:20.615Z,19.56
2017-07-01T18:01:16.414Z,19.51
2017-07-01T18:06:12.349Z,19.49
2017-07-01T18:11:08.543Z,19.51
2017-07-01T18:16:04.485Z,19.41
2017-07-01T18:21:00.488Z,19.40
2017-07-01T18:25:56.377Z,19.36
2017-07-01T18:30:52.192Z,19.16
2017-07-01T18:35:48.040Z,19.14
2017-07-01T18:40:43.963Z,19.14
2017-07-01T18:45:39.872Z,19.11
2017-07-01T18:50:36.920Z,19.15
2017-07-01T18:55:33.683Z,19.11
2017-07-01T19:00:29.335Z,18.98
2017-07-01T19:05:25.004Z,18.99
2017-07-01T19:10:20.878Z,18.99
2017-07-01T19:15:16.605Z,18.80
2017-07-01T19:20:12.381Z,18.89
2017-07-01T19:25:08.184Z,18.77
2017-07-01T19:30:03.978Z,18.63
2017-07-01T19:34:59.858Z,18.58
2017-07-01T19:39:55.598Z,18.49
2017-07-01T19:44:51.487Z,18.49
2017-07-01T19:49:48.413Z,18.50
2017-07-01T19:54:45.373Z,18.41
2017-07-01T19:59:40.904Z,18.43
2017-07-01T20:04:36.620Z,18.33
2017-07-01T20:09:32.832Z,18.15
2017-07-01T20:14:28.517Z,18.00
2017-07-01T20:19:25.446Z,18.01
2017-07-01T20:24:20.955Z,18.05
2017-07-01T20:29:16.980Z,18.13
2017-07-01T20:34:13.920Z,18.01
2017-07-01T20:39:10.070Z,18.00
2017-07-01T20:44:05.820Z,18.15
2017-07-01T20:49:01.760Z,18.07
2017-07-01T20:53:58.668Z,18.13
2017-07-01T20:58:55.449Z,18.13
2017-07-01T21:03:51.194Z,18.05
2017-07-01T21:08:47.790Z,18.00
2017-07-01T21:13:44.806Z,17.94
2017-07-01T21:18:41.639Z,17.85
2017-07-01T21:23:37.107Z,17.85
2017-07-01T21:28:32.915Z,17.72
2017-07-01T21:33:30.161Z,17.76
2017-07-01T21:38:26.248Z,17.80
2017-07-01T21:43:22.734Z,17.71
2017-07-01T21:48:18.847Z,17.67
2017-07-01T21:53:14.450Z,17.64
2017-07-01T21:58:10.429Z,17.54
2017-07-01T22:03:06.419Z,17.52
2017-07-01T22:08:02.660Z,17.42
2017-07-01T22:12:58.413Z,17.49
2017-07-01T22:17:54.241Z,17.49
2017-07-01T22:22:50.330Z,17.44
2017-07-01T22:27:45.981Z,17.39
2017-07-01T22:32:42.787Z,17.22
2017-07-01T22:37:38.184Z,17.16
2017-07-01T22:42:35.009Z,17.14
2017-07-01T22:47:30.633Z,17.04
2017-07-01T22:52:26.402Z,16.91
2017-07-01T22:57:23.070Z,16.89
2017-07-01T23:02:18.525Z,16.75
2017-07-01T23:07:14.998Z,16.68
2017-07-01T23:12:11.526Z,16.72
2017-07-01T23:17:07.109Z,16.65
2017-07-01T23:22:02.921Z,16.69
2017-07-01T23:26:58.913Z,16.65
2017-07-01T23:31:54.693Z,16.64
2017-07-01T23:36:51.402Z,16.68
2017-07-01T23:41:46.981Z,16.68
2017-07-01T23:46:42.724Z,16.61
2017-07-01T23:51:38.573Z,16.64
2017-07-01T23:56:35.388Z,16.65
